MHLC/LCE METAR and TAF weather

Enter ICAO airport designator
Station Type Date Time Source
MHLC METAR 2020/09/23 22:00 UTC NOAA

MHLC 232200Z 01005KT 9999 FEW025TCU 30/25 Q1009 A2980 NOSIG


Station Type Date Time Source
MHLC Decoded METAR 2020/09/23 22:00 UTC NOAA

La Ceiba Airport , Honduras (MHLC) 15-44N 086-52W 26M
Sep 23, 2020 - 06:00 PM EDT / 2020.09.23 2200 UTC
Wind: from the N (010 degrees) at 6 MPH (5 KT):0
Visibility: greater than 7 mile(s):0
Sky conditions: mostly clear
Weather: Towering cumulus clouds observed
Temperature: 86 F (30 C)
Heat index: 96.8 F (36.0 C):1
Dew Point: 77 F (25 C)
Relative Humidity: 74%
Pressure (altimeter): 29.8 in. Hg (1009 hPa)
ob: MHLC 232200Z 01005KT 9999 FEW025TCU 30/25 Q1009 A2980 NOSIG
cycle: 22

Station Type Date Time Source
MHLC TAF 2020/09/24 12:35 UTC NOAA

TAF MHLC 241025Z 2412/2512 22004KT 9999 FEW020 TX32/2421Z TN23/2512Z
BECMG 2418/2420 35006KT 8000 TSVCSH FEW020CB SCT025TCU
BECMG 2501/2503 09008KT 3000 TSRA SCT020CB BKN080
BECMG 2507/2509 21006KT 9999 NSW FEW020 BKN080

Example: see airport list